sensor_id;sensor_type;location;lat;lon;timestamp;P1;durP1;ratioP1;P2;durP2;ratioP2
57561;SDS011;43397;51.530;5.974;2022-08-27T00:00:25;7.28;;;1.77;;
57561;SDS011;43397;51.530;5.974;2022-08-27T00:02:52;5.72;;;1.77;;
57561;SDS011;43397;51.530;5.974;2022-08-27T00:05:18;4.35;;;1.63;;
57561;SDS011;43397;51.530;5.974;2022-08-27T00:07:47;7.53;;;2.33;;
57561;SDS011;43397;51.530;5.974;2022-08-27T00:10:14;4.95;;;1.90;;
57561;SDS011;43397;51.530;5.974;2022-08-27T00:12:42;6.30;;;1.80;;
57561;SDS011;43397;51.530;5.974;2022-08-27T00:15:08;3.63;;;1.58;;
57561;SDS011;43397;51.530;5.974;2022-08-27T00:17:34;5.97;;;1.70;;
57561;SDS011;43397;51.530;5.974;2022-08-27T00:20:00;5.50;;;1.85;;
57561;SDS011;43397;51.530;5.974;2022-08-27T00:22:28;6.32;;;1.60;;
57561;SDS011;43397;51.530;5.974;2022-08-27T00:24:55;4.65;;;1.33;;
57561;SDS011;43397;51.530;5.974;2022-08-27T00:27:21;3.63;;;1.30;;
57561;SDS011;43397;51.530;5.974;2022-08-27T00:29:47;5.60;;;1.55;;
57561;SDS011;43397;51.530;5.974;2022-08-27T00:32:14;3.28;;;1.35;;
57561;SDS011;43397;51.530;5.974;2022-08-27T00:34:40;8.55;;;1.85;;
57561;SDS011;43397;51.530;5.974;2022-08-27T00:37:06;3.80;;;1.48;;
57561;SDS011;43397;51.530;5.974;2022-08-27T00:39:32;5.97;;;2.08;;
57561;SDS011;43397;51.530;5.974;2022-08-27T00:41:59;6.65;;;1.73;;
57561;SDS011;43397;51.530;5.974;2022-08-27T00:44:25;6.15;;;1.85;;
57561;SDS011;43397;51.530;5.974;2022-08-27T00:46:52;5.53;;;1.58;;
57561;SDS011;43397;51.530;5.974;2022-08-27T00:49:22;4.43;;;1.40;;
57561;SDS011;43397;51.530;5.974;2022-08-27T00:51:51;5.05;;;1.80;;
57561;SDS011;43397;51.530;5.974;2022-08-27T00:54:20;5.30;;;1.70;;
57561;SDS011;43397;51.530;5.974;2022-08-27T00:56:46;5.75;;;1.52;;
57561;SDS011;43397;51.530;5.974;2022-08-27T00:59:15;5.53;;;1.92;;
57561;SDS011;43397;51.530;5.974;2022-08-27T01:01:42;7.35;;;1.90;;
57561;SDS011;43397;51.530;5.974;2022-08-27T01:04:10;4.35;;;1.70;;
57561;SDS011;43397;51.530;5.974;2022-08-27T01:06:36;5.15;;;1.77;;
57561;SDS011;43397;51.530;5.974;2022-08-27T01:09:03;5.75;;;1.63;;
57561;SDS011;43397;51.530;5.974;2022-08-27T01:11:34;5.28;;;1.63;;
57561;SDS011;43397;51.530;5.974;2022-08-27T01:14:01;4.90;;;1.90;;
57561;SDS011;43397;51.530;5.974;2022-08-27T01:16:31;5.93;;;1.90;;
57561;SDS011;43397;51.530;5.974;2022-08-27T01:19:01;4.13;;;1.55;;
57561;SDS011;43397;51.530;5.974;2022-08-27T01:21:33;6.53;;;1.65;;
57561;SDS011;43397;51.530;5.974;2022-08-27T01:24:05;6.95;;;1.85;;
57561;SDS011;43397;51.530;5.974;2022-08-27T01:26:39;6.10;;;1.77;;
57561;SDS011;43397;51.530;5.974;2022-08-27T01:29:05;11.32;;;2.38;;
57561;SDS011;43397;51.530;5.974;2022-08-27T01:31:31;5.05;;;1.60;;
57561;SDS011;43397;51.530;5.974;2022-08-27T01:33:58;4.47;;;1.80;;
57561;SDS011;43397;51.530;5.974;2022-08-27T01:36:25;4.00;;;1.70;;
57561;SDS011;43397;51.530;5.974;2022-08-27T01:38:51;4.57;;;1.63;;
57561;SDS011;43397;51.530;5.974;2022-08-27T01:41:17;5.95;;;1.80;;
57561;SDS011;43397;51.530;5.974;2022-08-27T01:43:45;7.72;;;1.80;;
57561;SDS011;43397;51.530;5.974;2022-08-27T01:46:11;6.63;;;2.00;;
57561;SDS011;43397;51.530;5.974;2022-08-27T01:48:37;6.22;;;1.85;;
57561;SDS011;43397;51.530;5.974;2022-08-27T01:51:03;6.13;;;2.22;;
57561;SDS011;43397;51.530;5.974;2022-08-27T01:53:29;6.47;;;1.92;;
57561;SDS011;43397;51.530;5.974;2022-08-27T01:55:55;7.20;;;1.70;;
57561;SDS011;43397;51.530;5.974;2022-08-27T01:58:22;5.43;;;1.52;;
57561;SDS011;43397;51.530;5.974;2022-08-27T02:00:51;4.82;;;2.35;;
57561;SDS011;43397;51.530;5.974;2022-08-27T02:03:19;6.60;;;1.77;;
57561;SDS011;43397;51.530;5.974;2022-08-27T02:05:45;6.53;;;2.00;;
57561;SDS011;43397;51.530;5.974;2022-08-27T02:08:11;6.15;;;1.85;;
57561;SDS011;43397;51.530;5.974;2022-08-27T02:10:38;4.82;;;1.80;;
57561;SDS011;43397;51.530;5.974;2022-08-27T02:13:05;6.28;;;1.65;;
57561;SDS011;43397;51.530;5.974;2022-08-27T02:15:32;5.07;;;2.10;;
57561;SDS011;43397;51.530;5.974;2022-08-27T02:18:00;6.03;;;2.00;;
57561;SDS011;43397;51.530;5.974;2022-08-27T02:20:27;6.57;;;1.83;;
57561;SDS011;43397;51.530;5.974;2022-08-27T02:22:53;4.93;;;1.60;;
57561;SDS011;43397;51.530;5.974;2022-08-27T02:25:19;5.30;;;1.88;;
57561;SDS011;43397;51.530;5.974;2022-08-27T02:27:45;7.47;;;1.90;;
57561;SDS011;43397;51.530;5.974;2022-08-27T02:30:13;4.88;;;1.80;;
57561;SDS011;43397;51.530;5.974;2022-08-27T02:32:43;5.75;;;2.10;;
57561;SDS011;43397;51.530;5.974;2022-08-27T02:35:11;4.82;;;1.85;;
57561;SDS011;43397;51.530;5.974;2022-08-27T02:37:37;5.97;;;2.03;;
57561;SDS011;43397;51.530;5.974;2022-08-27T02:40:03;5.45;;;1.65;;
57561;SDS011;43397;51.530;5.974;2022-08-27T02:42:30;5.20;;;2.05;;
57561;SDS011;43397;51.530;5.974;2022-08-27T02:44:56;6.95;;;1.88;;
57561;SDS011;43397;51.530;5.974;2022-08-27T02:47:22;4.80;;;1.80;;
57561;SDS011;43397;51.530;5.974;2022-08-27T02:49:48;6.25;;;1.98;;
57561;SDS011;43397;51.530;5.974;2022-08-27T02:52:15;6.18;;;1.70;;
57561;SDS011;43397;51.530;5.974;2022-08-27T02:54:41;5.85;;;1.92;;
57561;SDS011;43397;51.530;5.974;2022-08-27T02:57:06;9.52;;;2.00;;
57561;SDS011;43397;51.530;5.974;2022-08-27T02:59:34;5.15;;;1.90;;
57561;SDS011;43397;51.530;5.974;2022-08-27T03:02:00;4.93;;;1.80;;
57561;SDS011;43397;51.530;5.974;2022-08-27T03:04:26;5.57;;;1.90;;
57561;SDS011;43397;51.530;5.974;2022-08-27T03:06:52;4.45;;;1.75;;
57561;SDS011;43397;51.530;5.974;2022-08-27T03:09:19;7.07;;;1.90;;
57561;SDS011;43397;51.530;5.974;2022-08-27T03:11:45;7.10;;;2.17;;
57561;SDS011;43397;51.530;5.974;2022-08-27T03:14:11;4.53;;;1.88;;
57561;SDS011;43397;51.530;5.974;2022-08-27T03:16:37;7.53;;;1.95;;
57561;SDS011;43397;51.530;5.974;2022-08-27T03:19:04;7.18;;;2.10;;
57561;SDS011;43397;51.530;5.974;2022-08-27T03:21:31;7.78;;;2.45;;
57561;SDS011;43397;51.530;5.974;2022-08-27T03:23:58;6.47;;;1.92;;
57561;SDS011;43397;51.530;5.974;2022-08-27T03:26:25;4.78;;;1.95;;
57561;SDS011;43397;51.530;5.974;2022-08-27T03:28:51;7.40;;;2.17;;
57561;SDS011;43397;51.530;5.974;2022-08-27T03:31:18;5.13;;;2.03;;
57561;SDS011;43397;51.530;5.974;2022-08-27T03:33:45;7.95;;;2.15;;
57561;SDS011;43397;51.530;5.974;2022-08-27T03:36:11;6.20;;;2.00;;
57561;SDS011;43397;51.530;5.974;2022-08-27T03:38:37;7.47;;;2.40;;
57561;SDS011;43397;51.530;5.974;2022-08-27T03:41:03;7.63;;;2.75;;
57561;SDS011;43397;51.530;5.974;2022-08-27T03:43:31;6.63;;;2.72;;
57561;SDS011;43397;51.530;5.974;2022-08-27T03:45:57;5.03;;;2.65;;
57561;SDS011;43397;51.530;5.974;2022-08-27T03:48:23;8.98;;;2.75;;
57561;SDS011;43397;51.530;5.974;2022-08-27T03:50:49;5.90;;;2.65;;
57561;SDS011;43397;51.530;5.974;2022-08-27T03:53:16;6.18;;;2.58;;
57561;SDS011;43397;51.530;5.974;2022-08-27T03:55:43;6.32;;;2.35;;
57561;SDS011;43397;51.530;5.974;2022-08-27T03:58:08;5.72;;;2.50;;
57561;SDS011;43397;51.530;5.974;2022-08-27T04:00:36;6.95;;;3.30;;
57561;SDS011;43397;51.530;5.974;2022-08-27T04:03:03;8.48;;;2.92;;
57561;SDS011;43397;51.530;5.974;2022-08-27T04:05:28;6.05;;;2.97;;
57561;SDS011;43397;51.530;5.974;2022-08-27T04:07:54;7.43;;;2.50;;
57561;SDS011;43397;51.530;5.974;2022-08-27T04:10:20;6.50;;;2.70;;
57561;SDS011;43397;51.530;5.974;2022-08-27T04:12:46;6.72;;;2.53;;
57561;SDS011;43397;51.530;5.974;2022-08-27T04:15:12;7.07;;;2.60;;
57561;SDS011;43397;51.530;5.974;2022-08-27T04:17:39;7.55;;;2.78;;
57561;SDS011;43397;51.530;5.974;2022-08-27T04:20:06;8.80;;;2.90;;
57561;SDS011;43397;51.530;5.974;2022-08-27T04:22:36;8.65;;;2.90;;
57561;SDS011;43397;51.530;5.974;2022-08-27T04:25:03;8.27;;;3.17;;
57561;SDS011;43397;51.530;5.974;2022-08-27T04:27:29;8.43;;;3.10;;
57561;SDS011;43397;51.530;5.974;2022-08-27T04:29:55;8.52;;;3.20;;
57561;SDS011;43397;51.530;5.974;2022-08-27T04:32:23;10.30;;;3.85;;
57561;SDS011;43397;51.530;5.974;2022-08-27T04:34:53;9.60;;;3.38;;
57561;SDS011;43397;51.530;5.974;2022-08-27T04:37:19;9.38;;;3.35;;
57561;SDS011;43397;51.530;5.974;2022-08-27T04:39:45;6.88;;;3.45;;
57561;SDS011;43397;51.530;5.974;2022-08-27T04:42:11;7.25;;;3.40;;
57561;SDS011;43397;51.530;5.974;2022-08-27T04:44:37;7.25;;;3.50;;
57561;SDS011;43397;51.530;5.974;2022-08-27T04:47:04;6.00;;;3.28;;
57561;SDS011;43397;51.530;5.974;2022-08-27T04:49:30;7.93;;;3.58;;
57561;SDS011;43397;51.530;5.974;2022-08-27T04:51:58;7.55;;;3.30;;
57561;SDS011;43397;51.530;5.974;2022-08-27T04:54:24;8.85;;;3.40;;
57561;SDS011;43397;51.530;5.974;2022-08-27T04:56:50;8.82;;;3.33;;
57561;SDS011;43397;51.530;5.974;2022-08-27T04:59:16;10.25;;;3.60;;
57561;SDS011;43397;51.530;5.974;2022-08-27T05:01:42;8.77;;;3.38;;
57561;SDS011;43397;51.530;5.974;2022-08-27T05:04:09;8.15;;;3.88;;
57561;SDS011;43397;51.530;5.974;2022-08-27T05:06:37;8.55;;;3.58;;
57561;SDS011;43397;51.530;5.974;2022-08-27T05:09:04;9.60;;;3.72;;
57561;SDS011;43397;51.530;5.974;2022-08-27T05:11:30;6.60;;;3.20;;
57561;SDS011;43397;51.530;5.974;2022-08-27T05:13:56;6.63;;;3.75;;
57561;SDS011;43397;51.530;5.974;2022-08-27T05:16:23;8.45;;;4.10;;
57561;SDS011;43397;51.530;5.974;2022-08-27T05:18:50;6.15;;;3.40;;
57561;SDS011;43397;51.530;5.974;2022-08-27T05:21:18;8.68;;;4.00;;
57561;SDS011;43397;51.530;5.974;2022-08-27T05:26:13;8.70;;;4.10;;
57561;SDS011;43397;51.530;5.974;2022-08-27T05:28:40;8.40;;;4.03;;
57561;SDS011;43397;51.530;5.974;2022-08-27T05:31:06;7.90;;;4.43;;
57561;SDS011;43397;51.530;5.974;2022-08-27T05:33:36;8.82;;;4.18;;
57561;SDS011;43397;51.530;5.974;2022-08-27T05:36:03;9.27;;;4.63;;
57561;SDS011;43397;51.530;5.974;2022-08-27T05:38:30;9.57;;;4.35;;
57561;SDS011;43397;51.530;5.974;2022-08-27T05:41:03;7.63;;;3.90;;
57561;SDS011;43397;51.530;5.974;2022-08-27T05:43:32;6.35;;;3.47;;
57561;SDS011;43397;51.530;5.974;2022-08-27T05:46:01;11.32;;;3.70;;
57561;SDS011;43397;51.530;5.974;2022-08-27T05:48:28;6.75;;;3.88;;
57561;SDS011;43397;51.530;5.974;2022-08-27T05:50:54;9.07;;;3.92;;
57561;SDS011;43397;51.530;5.974;2022-08-27T05:53:20;7.50;;;4.40;;
57561;SDS011;43397;51.530;5.974;2022-08-27T05:55:46;7.80;;;3.65;;
57561;SDS011;43397;51.530;5.974;2022-08-27T05:58:12;7.30;;;3.90;;
57561;SDS011;43397;51.530;5.974;2022-08-27T06:00:39;7.03;;;3.90;;
57561;SDS011;43397;51.530;5.974;2022-08-27T06:03:05;9.85;;;3.90;;
57561;SDS011;43397;51.530;5.974;2022-08-27T06:05:31;7.32;;;4.30;;
57561;SDS011;43397;51.530;5.974;2022-08-27T06:07:56;7.40;;;4.05;;
57561;SDS011;43397;51.530;5.974;2022-08-27T06:10:22;8.75;;;4.60;;
57561;SDS011;43397;51.530;5.974;2022-08-27T06:12:48;7.22;;;3.88;;
57561;SDS011;43397;51.530;5.974;2022-08-27T06:15:14;9.25;;;4.75;;
57561;SDS011;43397;51.530;5.974;2022-08-27T06:17:41;7.10;;;4.00;;
57561;SDS011;43397;51.530;5.974;2022-08-27T06:20:07;10.15;;;4.88;;
57561;SDS011;43397;51.530;5.974;2022-08-27T06:22:33;15.05;;;4.85;;
57561;SDS011;43397;51.530;5.974;2022-08-27T06:24:59;8.43;;;4.57;;
57561;SDS011;43397;51.530;5.974;2022-08-27T06:27:25;7.85;;;4.35;;
57561;SDS011;43397;51.530;5.974;2022-08-27T06:29:51;11.73;;;5.00;;
57561;SDS011;43397;51.530;5.974;2022-08-27T06:32:17;9.88;;;5.20;;
57561;SDS011;43397;51.530;5.974;2022-08-27T06:34:44;9.23;;;5.28;;
57561;SDS011;43397;51.530;5.974;2022-08-27T06:37:10;6.65;;;3.28;;
57561;SDS011;43397;51.530;5.974;2022-08-27T06:39:36;8.95;;;3.20;;
57561;SDS011;43397;51.530;5.974;2022-08-27T06:42:02;6.72;;;3.35;;
57561;SDS011;43397;51.530;5.974;2022-08-27T06:44:28;6.63;;;3.15;;
57561;SDS011;43397;51.530;5.974;2022-08-27T06:46:54;9.43;;;4.70;;
57561;SDS011;43397;51.530;5.974;2022-08-27T06:49:20;7.60;;;4.60;;
57561;SDS011;43397;51.530;5.974;2022-08-27T06:51:47;9.40;;;4.88;;
57561;SDS011;43397;51.530;5.974;2022-08-27T06:54:13;8.45;;;5.28;;
57561;SDS011;43397;51.530;5.974;2022-08-27T06:56:41;9.68;;;4.88;;
57561;SDS011;43397;51.530;5.974;2022-08-27T06:59:09;13.32;;;5.35;;
57561;SDS011;43397;51.530;5.974;2022-08-27T07:01:37;13.05;;;5.03;;
57561;SDS011;43397;51.530;5.974;2022-08-27T07:04:08;8.60;;;5.05;;
57561;SDS011;43397;51.530;5.974;2022-08-27T07:06:36;9.10;;;5.28;;
57561;SDS011;43397;51.530;5.974;2022-08-27T07:09:05;10.25;;;5.68;;
57561;SDS011;43397;51.530;5.974;2022-08-27T07:11:31;9.73;;;5.38;;
57561;SDS011;43397;51.530;5.974;2022-08-27T07:13:57;7.68;;;5.28;;
57561;SDS011;43397;51.530;5.974;2022-08-27T07:16:24;8.20;;;4.53;;
57561;SDS011;43397;51.530;5.974;2022-08-27T07:18:52;12.07;;;5.35;;
57561;SDS011;43397;51.530;5.974;2022-08-27T07:21:20;10.30;;;5.07;;
57561;SDS011;43397;51.530;5.974;2022-08-27T07:23:47;9.13;;;5.00;;
57561;SDS011;43397;51.530;5.974;2022-08-27T07:26:15;8.75;;;5.45;;
57561;SDS011;43397;51.530;5.974;2022-08-27T07:28:43;8.85;;;4.75;;
57561;SDS011;43397;51.530;5.974;2022-08-27T07:31:10;8.88;;;4.93;;
57561;SDS011;43397;51.530;5.974;2022-08-27T07:33:41;9.77;;;5.28;;
57561;SDS011;43397;51.530;5.974;2022-08-27T07:36:07;11.38;;;5.05;;
57561;SDS011;43397;51.530;5.974;2022-08-27T07:38:33;15.15;;;5.85;;
57561;SDS011;43397;51.530;5.974;2022-08-27T07:41:03;14.98;;;5.93;;
57561;SDS011;43397;51.530;5.974;2022-08-27T07:45:59;12.40;;;4.72;;
57561;SDS011;43397;51.530;5.974;2022-08-27T07:48:25;10.18;;;4.57;;
57561;SDS011;43397;51.530;5.974;2022-08-27T07:50:51;7.13;;;3.42;;
57561;SDS011;43397;51.530;5.974;2022-08-27T07:53:18;10.00;;;3.55;;
57561;SDS011;43397;51.530;5.974;2022-08-27T07:55:45;8.02;;;3.70;;
57561;SDS011;43397;51.530;5.974;2022-08-27T07:58:11;9.68;;;3.80;;
57561;SDS011;43397;51.530;5.974;2022-08-27T08:00:40;5.60;;;3.13;;
57561;SDS011;43397;51.530;5.974;2022-08-27T08:05:32;8.70;;;2.58;;
57561;SDS011;43397;51.530;5.974;2022-08-27T08:07:58;6.28;;;2.78;;
57561;SDS011;43397;51.530;5.974;2022-08-27T08:10:23;8.25;;;2.90;;
57561;SDS011;43397;51.530;5.974;2022-08-27T08:12:51;7.50;;;2.50;;
57561;SDS011;43397;51.530;5.974;2022-08-27T08:15:17;8.85;;;2.80;;
57561;SDS011;43397;51.530;5.974;2022-08-27T08:17:44;6.28;;;2.35;;
57561;SDS011;43397;51.530;5.974;2022-08-27T08:20:10;6.03;;;2.33;;
57561;SDS011;43397;51.530;5.974;2022-08-27T08:22:37;8.50;;;2.67;;
57561;SDS011;43397;51.530;5.974;2022-08-27T08:25:04;7.05;;;2.90;;
57561;SDS011;43397;51.530;5.974;2022-08-27T08:27:30;6.85;;;2.67;;
57561;SDS011;43397;51.530;5.974;2022-08-27T08:29:58;6.95;;;2.38;;
57561;SDS011;43397;51.530;5.974;2022-08-27T08:32:24;8.10;;;3.00;;
57561;SDS011;43397;51.530;5.974;2022-08-27T08:34:51;7.90;;;2.33;;
57561;SDS011;43397;51.530;5.974;2022-08-27T08:37:17;6.63;;;2.42;;
57561;SDS011;43397;51.530;5.974;2022-08-27T08:39:43;6.13;;;2.58;;
57561;SDS011;43397;51.530;5.974;2022-08-27T08:42:12;8.43;;;2.30;;
57561;SDS011;43397;51.530;5.974;2022-08-27T08:44:51;7.90;;;2.53;;
57561;SDS011;43397;51.530;5.974;2022-08-27T08:47:18;5.97;;;2.13;;
57561;SDS011;43397;51.530;5.974;2022-08-27T08:49:48;7.47;;;2.00;;
57561;SDS011;43397;51.530;5.974;2022-08-27T08:52:24;5.78;;;2.05;;
57561;SDS011;43397;51.530;5.974;2022-08-27T08:54:58;6.10;;;2.60;;
57561;SDS011;43397;51.530;5.974;2022-08-27T08:57:32;7.03;;;2.20;;
57561;SDS011;43397;51.530;5.974;2022-08-27T09:00:04;6.43;;;1.98;;
57561;SDS011;43397;51.530;5.974;2022-08-27T09:02:32;5.68;;;2.70;;
57561;SDS011;43397;51.530;5.974;2022-08-27T09:05:00;7.72;;;2.92;;
57561;SDS011;43397;51.530;5.974;2022-08-27T09:07:28;6.50;;;2.15;;
57561;SDS011;43397;51.530;5.974;2022-08-27T09:10:00;5.18;;;2.25;;
57561;SDS011;43397;51.530;5.974;2022-08-27T09:12:35;6.15;;;2.20;;
57561;SDS011;43397;51.530;5.974;2022-08-27T09:15:02;9.65;;;2.88;;
57561;SDS011;43397;51.530;5.974;2022-08-27T09:17:32;7.10;;;2.33;;
57561;SDS011;43397;51.530;5.974;2022-08-27T09:19:59;7.57;;;3.00;;
57561;SDS011;43397;51.530;5.974;2022-08-27T09:22:26;5.97;;;2.28;;
57561;SDS011;43397;51.530;5.974;2022-08-27T09:25:08;6.57;;;2.30;;
57561;SDS011;43397;51.530;5.974;2022-08-27T09:27:40;5.85;;;2.38;;
57561;SDS011;43397;51.530;5.974;2022-08-27T09:30:07;7.60;;;2.60;;
57561;SDS011;43397;51.530;5.974;2022-08-27T09:32:36;7.13;;;2.60;;
57561;SDS011;43397;51.530;5.974;2022-08-27T09:35:04;7.28;;;2.20;;
57561;SDS011;43397;51.530;5.974;2022-08-27T09:37:38;5.88;;;2.30;;
57561;SDS011;43397;51.530;5.974;2022-08-27T09:40:06;6.15;;;2.60;;
57561;SDS011;43397;51.530;5.974;2022-08-27T09:42:40;7.53;;;2.35;;
57561;SDS011;43397;51.530;5.974;2022-08-27T09:47:43;5.18;;;1.95;;
57561;SDS011;43397;51.530;5.974;2022-08-27T09:50:11;5.55;;;1.92;;
57561;SDS011;43397;51.530;5.974;2022-08-27T09:52:45;6.00;;;1.90;;
57561;SDS011;43397;51.530;5.974;2022-08-27T09:55:24;4.97;;;2.90;;
57561;SDS011;43397;51.530;5.974;2022-08-27T09:57:50;5.07;;;1.90;;
57561;SDS011;43397;51.530;5.974;2022-08-27T10:00:16;6.68;;;2.20;;
57561;SDS011;43397;51.530;5.974;2022-08-27T10:02:49;5.35;;;2.08;;
57561;SDS011;43397;51.530;5.974;2022-08-27T10:05:19;7.32;;;2.28;;
57561;SDS011;43397;51.530;5.974;2022-08-27T10:07:51;4.60;;;2.00;;
57561;SDS011;43397;51.530;5.974;2022-08-27T10:10:23;5.68;;;2.15;;
57561;SDS011;43397;51.530;5.974;2022-08-27T10:12:55;5.30;;;1.83;;
57561;SDS011;43397;51.530;5.974;2022-08-27T10:15:27;4.88;;;1.92;;
57561;SDS011;43397;51.530;5.974;2022-08-27T10:17:59;4.35;;;1.98;;
57561;SDS011;43397;51.530;5.974;2022-08-27T10:20:38;4.18;;;1.70;;
57561;SDS011;43397;51.530;5.974;2022-08-27T10:23:11;5.85;;;2.25;;
57561;SDS011;43397;51.530;5.974;2022-08-27T10:25:47;6.93;;;1.95;;
57561;SDS011;43397;51.530;5.974;2022-08-27T10:28:27;5.03;;;1.60;;
57561;SDS011;43397;51.530;5.974;2022-08-27T10:31:06;5.63;;;1.98;;
57561;SDS011;43397;51.530;5.974;2022-08-27T10:33:52;6.10;;;2.17;;
57561;SDS011;43397;51.530;5.974;2022-08-27T10:36:28;5.80;;;1.75;;
57561;SDS011;43397;51.530;5.974;2022-08-27T10:39:06;4.60;;;1.38;;
57561;SDS011;43397;51.530;5.974;2022-08-27T10:41:40;5.22;;;1.55;;
57561;SDS011;43397;51.530;5.974;2022-08-27T10:44:23;5.10;;;1.70;;
57561;SDS011;43397;51.530;5.974;2022-08-27T10:47:11;5.93;;;1.65;;
57561;SDS011;43397;51.530;5.974;2022-08-27T10:49:51;3.75;;;1.50;;
57561;SDS011;43397;51.530;5.974;2022-08-27T10:52:30;7.60;;;1.70;;
57561;SDS011;43397;51.530;5.974;2022-08-27T10:55:03;4.80;;;1.50;;
57561;SDS011;43397;51.530;5.974;2022-08-27T10:57:42;5.25;;;1.55;;
57561;SDS011;43397;51.530;5.974;2022-08-27T11:00:23;4.85;;;1.58;;
57561;SDS011;43397;51.530;5.974;2022-08-27T11:02:56;4.20;;;1.20;;
57561;SDS011;43397;51.530;5.974;2022-08-27T11:05:28;6.50;;;1.58;;
57561;SDS011;43397;51.530;5.974;2022-08-27T11:10:27;6.68;;;1.60;;
57561;SDS011;43397;51.530;5.974;2022-08-27T11:12:55;5.17;;;1.57;;
57561;SDS011;43397;51.530;5.974;2022-08-27T11:15:25;4.45;;;1.52;;
57561;SDS011;43397;51.530;5.974;2022-08-27T11:17:55;5.90;;;1.52;;
57561;SDS011;43397;51.530;5.974;2022-08-27T11:20:27;5.93;;;1.80;;
57561;SDS011;43397;51.530;5.974;2022-08-27T11:22:59;4.68;;;1.38;;
57561;SDS011;43397;51.530;5.974;2022-08-27T11:25:32;5.35;;;1.58;;
57561;SDS011;43397;51.530;5.974;2022-08-27T11:28:03;6.82;;;2.00;;
57561;SDS011;43397;51.530;5.974;2022-08-27T11:30:37;6.60;;;1.73;;
57561;SDS011;43397;51.530;5.974;2022-08-27T11:33:14;5.28;;;1.70;;
57561;SDS011;43397;51.530;5.974;2022-08-27T11:35:52;6.03;;;1.55;;
57561;SDS011;43397;51.530;5.974;2022-08-27T11:38:50;3.93;;;1.40;;
57561;SDS011;43397;51.530;5.974;2022-08-27T11:44:16;6.18;;;1.65;;
57561;SDS011;43397;51.530;5.974;2022-08-27T11:46:46;4.78;;;1.27;;
57561;SDS011;43397;51.530;5.974;2022-08-27T11:49:22;5.63;;;1.70;;
57561;SDS011;43397;51.530;5.974;2022-08-27T11:51:55;5.30;;;1.40;;
57561;SDS011;43397;51.530;5.974;2022-08-27T11:54:26;3.60;;;1.35;;
57561;SDS011;43397;51.530;5.974;2022-08-27T11:56:55;4.95;;;1.65;;
57561;SDS011;43397;51.530;5.974;2022-08-27T11:59:22;4.47;;;1.75;;
57561;SDS011;43397;51.530;5.974;2022-08-27T12:01:54;5.60;;;1.80;;
57561;SDS011;43397;51.530;5.974;2022-08-27T12:04:31;4.53;;;1.17;;
57561;SDS011;43397;51.530;5.974;2022-08-27T12:07:00;4.60;;;1.40;;
57561;SDS011;43397;51.530;5.974;2022-08-27T12:09:40;4.15;;;1.40;;
57561;SDS011;43397;51.530;5.974;2022-08-27T12:12:18;4.32;;;1.50;;
57561;SDS011;43397;51.530;5.974;2022-08-27T12:14:52;5.68;;;1.67;;
57561;SDS011;43397;51.530;5.974;2022-08-27T12:17:28;4.78;;;1.42;;
57561;SDS011;43397;51.530;5.974;2022-08-27T12:20:05;3.38;;;1.23;;
57561;SDS011;43397;51.530;5.974;2022-08-27T12:22:44;5.80;;;1.67;;
57561;SDS011;43397;51.530;5.974;2022-08-27T12:25:22;4.25;;;1.25;;
57561;SDS011;43397;51.530;5.974;2022-08-27T12:27:53;7.43;;;2.60;;
57561;SDS011;43397;51.530;5.974;2022-08-27T12:30:21;6.00;;;1.80;;
57561;SDS011;43397;51.530;5.974;2022-08-27T12:32:52;5.22;;;1.30;;
57561;SDS011;43397;51.530;5.974;2022-08-27T12:35:24;4.35;;;1.23;;
57561;SDS011;43397;51.530;5.974;2022-08-27T12:37:54;4.88;;;1.63;;
57561;SDS011;43397;51.530;5.974;2022-08-27T12:40:37;4.20;;;1.20;;
57561;SDS011;43397;51.530;5.974;2022-08-27T12:43:04;2.78;;;1.08;;
57561;SDS011;43397;51.530;5.974;2022-08-27T12:45:32;6.07;;;1.30;;
57561;SDS011;43397;51.530;5.974;2022-08-27T12:48:07;4.22;;;1.27;;
57561;SDS011;43397;51.530;5.974;2022-08-27T12:50:34;4.80;;;1.08;;
57561;SDS011;43397;51.530;5.974;2022-08-27T12:53:06;4.88;;;1.40;;
57561;SDS011;43397;51.530;5.974;2022-08-27T12:55:58;3.00;;;1.00;;
57561;SDS011;43397;51.530;5.974;2022-08-27T12:58:36;3.88;;;1.38;;
57561;SDS011;43397;51.530;5.974;2022-08-27T13:01:17;4.35;;;1.17;;
57561;SDS011;43397;51.530;5.974;2022-08-27T13:03:55;3.97;;;1.10;;
57561;SDS011;43397;51.530;5.974;2022-08-27T13:06:25;6.57;;;1.85;;
57561;SDS011;43397;51.530;5.974;2022-08-27T13:08:54;4.90;;;1.20;;
57561;SDS011;43397;51.530;5.974;2022-08-27T13:11:23;5.35;;;1.70;;
57561;SDS011;43397;51.530;5.974;2022-08-27T13:13:51;5.25;;;1.70;;
57561;SDS011;43397;51.530;5.974;2022-08-27T13:16:28;3.40;;;1.27;;
57561;SDS011;43397;51.530;5.974;2022-08-27T13:18:53;5.97;;;1.40;;
57561;SDS011;43397;51.530;5.974;2022-08-27T13:21:20;5.95;;;1.83;;
57561;SDS011;43397;51.530;5.974;2022-08-27T13:23:49;4.07;;;1.27;;
57561;SDS011;43397;51.530;5.974;2022-08-27T13:26:20;5.93;;;1.85;;
57561;SDS011;43397;51.530;5.974;2022-08-27T13:28:49;3.65;;;1.45;;
57561;SDS011;43397;51.530;5.974;2022-08-27T13:31:16;4.18;;;1.48;;
57561;SDS011;43397;51.530;5.974;2022-08-27T13:33:44;5.68;;;2.25;;
57561;SDS011;43397;51.530;5.974;2022-08-27T13:36:10;5.65;;;1.60;;
57561;SDS011;43397;51.530;5.974;2022-08-27T13:38:37;5.45;;;1.90;;
57561;SDS011;43397;51.530;5.974;2022-08-27T13:41:06;3.22;;;1.05;;
57561;SDS011;43397;51.530;5.974;2022-08-27T13:43:36;2.78;;;1.23;;
57561;SDS011;43397;51.530;5.974;2022-08-27T13:46:05;4.68;;;1.70;;
57561;SDS011;43397;51.530;5.974;2022-08-27T13:48:33;4.82;;;1.40;;
57561;SDS011;43397;51.530;5.974;2022-08-27T13:51:00;4.40;;;1.30;;
57561;SDS011;43397;51.530;5.974;2022-08-27T13:53:27;5.68;;;1.33;;
57561;SDS011;43397;51.530;5.974;2022-08-27T13:55:55;5.15;;;1.40;;
57561;SDS011;43397;51.530;5.974;2022-08-27T13:58:24;5.40;;;1.35;;
57561;SDS011;43397;51.530;5.974;2022-08-27T14:00:53;3.40;;;1.15;;
57561;SDS011;43397;51.530;5.974;2022-08-27T14:03:29;3.92;;;1.40;;
57561;SDS011;43397;51.530;5.974;2022-08-27T14:05:56;4.80;;;1.38;;
57561;SDS011;43397;51.530;5.974;2022-08-27T14:08:22;5.57;;;1.60;;
57561;SDS011;43397;51.530;5.974;2022-08-27T14:10:57;4.93;;;1.23;;
57561;SDS011;43397;51.530;5.974;2022-08-27T14:13:25;3.55;;;1.48;;
57561;SDS011;43397;51.530;5.974;2022-08-27T14:15:53;5.35;;;1.35;;
57561;SDS011;43397;51.530;5.974;2022-08-27T14:18:21;6.68;;;1.45;;
57561;SDS011;43397;51.530;5.974;2022-08-27T14:20:49;2.22;;;0.95;;
57561;SDS011;43397;51.530;5.974;2022-08-27T14:23:15;3.70;;;1.08;;
57561;SDS011;43397;51.530;5.974;2022-08-27T14:25:42;6.10;;;1.50;;
57561;SDS011;43397;51.530;5.974;2022-08-27T14:28:08;4.78;;;1.40;;
57561;SDS011;43397;51.530;5.974;2022-08-27T14:30:34;7.22;;;1.60;;
57561;SDS011;43397;51.530;5.974;2022-08-27T14:33:02;5.50;;;1.50;;
57561;SDS011;43397;51.530;5.974;2022-08-27T14:35:28;4.70;;;1.23;;
57561;SDS011;43397;51.530;5.974;2022-08-27T14:37:55;4.38;;;1.20;;
57561;SDS011;43397;51.530;5.974;2022-08-27T14:40:22;5.13;;;1.83;;
57561;SDS011;43397;51.530;5.974;2022-08-27T14:42:48;4.78;;;1.23;;
57561;SDS011;43397;51.530;5.974;2022-08-27T14:45:14;3.72;;;1.00;;
57561;SDS011;43397;51.530;5.974;2022-08-27T14:47:40;6.15;;;1.77;;
57561;SDS011;43397;51.530;5.974;2022-08-27T14:50:09;4.63;;;1.35;;
57561;SDS011;43397;51.530;5.974;2022-08-27T14:52:38;3.90;;;1.50;;
57561;SDS011;43397;51.530;5.974;2022-08-27T14:55:04;5.20;;;1.42;;
57561;SDS011;43397;51.530;5.974;2022-08-27T14:57:30;3.80;;;1.33;;
57561;SDS011;43397;51.530;5.974;2022-08-27T14:59:56;6.13;;;1.45;;
57561;SDS011;43397;51.530;5.974;2022-08-27T15:02:22;4.68;;;1.45;;
57561;SDS011;43397;51.530;5.974;2022-08-27T15:04:48;5.10;;;1.48;;
57561;SDS011;43397;51.530;5.974;2022-08-27T15:07:15;5.05;;;1.77;;
57561;SDS011;43397;51.530;5.974;2022-08-27T15:09:41;4.95;;;1.38;;
57561;SDS011;43397;51.530;5.974;2022-08-27T15:12:07;4.60;;;1.52;;